Time;durP1;ratioP1;P1;durP2;ratioP2;P2;SDS_P1;SDS_P2;PMS_P1;PMS_P2;Temp;Humidity;BMP_temperature;BMP_pressure;BME280_temperature;BME280_humidity;BME280_pressure;Samples;Min_cycle;Max_cycle;Signal;HPM_P1;HPM_P2
2023/03/08 00:02:18;;;;;;;6.60;3.37;;;;;;;;;;5058639;28;20289;-29
2023/03/08 00:04:45;;;;;;;7.97;4.60;;;;;;;;;;5050339;28;20402;-27
2023/03/08 00:07:13;;;;;;;6.40;4.57;;;;;;;;;;5050561;28;20224;-33
2023/03/08 00:09:40;;;;;;;6.77;4.50;;;;;;;;;;5066751;28;20208;-28
2023/03/08 00:12:09;;;;;;;10.63;5.00;;;;;;;;;;5062498;28;20201;-29
2023/03/08 00:14:36;;;;;;;7.10;5.10;;;;;;;;;;5047522;28;20281;-28
2023/03/08 00:17:05;;;;;;;6.00;4.53;;;;;;;;;;5058129;28;20282;-32
2023/03/08 00:19:32;;;;;;;6.43;4.77;;;;;;;;;;5070205;28;20198;-30
2023/03/08 00:22:00;;;;;;;8.23;4.97;;;;;;;;;;5070642;28;20288;-33
2023/03/08 00:24:27;;;;;;;8.07;5.27;;;;;;;;;;5049304;28;20257;-31
2023/03/08 00:26:54;;;;;;;6.73;3.77;;;;;;;;;;5050778;28;20222;-31
2023/03/08 00:29:21;;;;;;;6.67;4.67;;;;;;;;;;5057126;28;20221;-30
2023/03/08 00:31:49;;;;;;;7.70;4.67;;;;;;;;;;5066526;28;20283;-31
2023/03/08 00:34:17;;;;;;;8.13;5.13;;;;;;;;;;5071884;28;20203;-31
2023/03/08 00:36:45;;;;;;;7.03;4.17;;;;;;;;;;5061938;28;20436;-31
2023/03/08 00:39:13;;;;;;;7.20;4.73;;;;;;;;;;5059501;28;20205;-28
2023/03/08 00:41:40;;;;;;;8.83;5.17;;;;;;;;;;5070148;28;20197;-30
2023/03/08 00:44:07;;;;;;;7.03;4.37;;;;;;;;;;5057020;28;20663;-30
2023/03/08 00:46:35;;;;;;;6.67;5.10;;;;;;;;;;5065718;28;20225;-29
2023/03/08 00:49:03;;;;;;;8.33;5.00;;;;;;;;;;5053296;28;20206;-30
2023/03/08 00:51:31;;;;;;;10.13;5.20;;;;;;;;;;5051379;28;20206;-31
2023/03/08 00:53:58;;;;;;;7.27;5.07;;;;;;;;;;5050956;28;20205;-31
2023/03/08 00:56:26;;;;;;;9.57;5.00;;;;;;;;;;5061011;28;20223;-30
2023/03/08 00:58:53;;;;;;;9.07;4.60;;;;;;;;;;5057588;28;20236;-30
2023/03/08 01:01:20;;;;;;;8.00;4.73;;;;;;;;;;5051800;28;20206;-29
2023/03/08 01:03:47;;;;;;;9.10;4.90;;;;;;;;;;5057339;28;20212;-30
2023/03/08 01:06:15;;;;;;;9.13;4.93;;;;;;;;;;5055570;28;20209;-32
2023/03/08 01:08:44;;;;;;;9.17;5.43;;;;;;;;;;5050378;28;20597;-30
2023/03/08 01:11:15;;;;;;;7.10;4.60;;;;;;;;;;5067051;28;20197;-30
2023/03/08 01:13:45;;;;;;;7.20;4.50;;;;;;;;;;5065614;28;20216;-30
2023/03/08 01:16:16;;;;;;;7.57;5.03;;;;;;;;;;5063859;28;20754;-30
2023/03/08 01:18:44;;;;;;;7.60;4.80;;;;;;;;;;5069054;28;20202;-28
2023/03/08 01:21:12;;;;;;;7.03;4.83;;;;;;;;;;5068470;28;20205;-30
2023/03/08 01:23:39;;;;;;;6.93;4.20;;;;;;;;;;5048889;28;20261;-30
2023/03/08 01:26:09;;;;;;;9.13;5.30;;;;;;;;;;5065762;28;20288;-28
2023/03/08 01:28:36;;;;;;;9.00;5.20;;;;;;;;;;5046578;28;20210;-29
2023/03/08 01:31:04;;;;;;;9.37;4.57;;;;;;;;;;5054236;28;20221;-30
2023/03/08 01:33:31;;;;;;;9.93;5.27;;;;;;;;;;5061575;28;20738;-31
2023/03/08 01:35:58;;;;;;;9.03;5.40;;;;;;;;;;5069383;28;20213;-28
2023/03/08 01:38:26;;;;;;;7.27;4.10;;;;;;;;;;5057138;28;20679;-29
2023/03/08 01:40:56;;;;;;;8.23;3.67;;;;;;;;;;5066369;28;20198;-33
2023/03/08 01:43:25;;;;;;;9.17;5.00;;;;;;;;;;5050695;28;20220;-29
2023/03/08 01:46:07;;;;;;;8.43;5.07;;;;;;;;;;5052093;28;20221;-32
2023/03/08 01:48:35;;;;;;;7.93;4.87;;;;;;;;;;5065975;28;20201;-28
2023/03/08 01:51:03;;;;;;;6.23;4.13;;;;;;;;;;5073638;28;20208;-31
2023/03/08 01:53:30;;;;;;;6.90;4.67;;;;;;;;;;5062822;28;20216;-30
2023/03/08 01:55:58;;;;;;;9.57;4.77;;;;;;;;;;5057220;28;20208;-29
2023/03/08 01:58:26;;;;;;;9.57;4.83;;;;;;;;;;5063728;28;20202;-32
2023/03/08 02:00:54;;;;;;;7.30;4.60;;;;;;;;;;5056262;28;20238;-32
2023/03/08 02:03:21;;;;;;;8.33;5.17;;;;;;;;;;5058193;28;20300;-30
2023/03/08 02:05:50;;;;;;;7.53;4.60;;;;;;;;;;5067235;28;20213;-30
2023/03/08 02:08:17;;;;;;;7.53;4.50;;;;;;;;;;5055420;28;20712;-30
2023/03/08 02:10:45;;;;;;;9.73;5.60;;;;;;;;;;5053885;28;20210;-27
2023/03/08 02:13:13;;;;;;;10.77;5.00;;;;;;;;;;5061701;28;20272;-29
2023/03/08 02:15:41;;;;;;;9.83;5.17;;;;;;;;;;5058884;28;20200;-31
2023/03/08 02:18:08;;;;;;;6.70;4.70;;;;;;;;;;5062130;28;20221;-29
2023/03/08 02:20:37;;;;;;;9.43;5.37;;;;;;;;;;5072779;28;20219;-27
2023/03/08 02:23:12;;;;;;;9.43;5.27;;;;;;;;;;5055484;28;20209;-32
2023/03/08 02:25:40;;;;;;;6.93;4.40;;;;;;;;;;5061229;28;20257;-29
2023/03/08 02:28:07;;;;;;;10.07;5.53;;;;;;;;;;5053154;28;20241;-30
2023/03/08 02:30:36;;;;;;;8.73;5.43;;;;;;;;;;5061026;28;20212;-29
2023/03/08 02:33:04;;;;;;;6.77;4.97;;;;;;;;;;5060500;28;20224;-30
2023/03/08 02:35:31;;;;;;;9.23;4.83;;;;;;;;;;5053868;28;20707;-32
2023/03/08 02:37:58;;;;;;;9.07;5.20;;;;;;;;;;5053024;28;20241;-32
2023/03/08 02:40:26;;;;;;;8.20;4.63;;;;;;;;;;5071678;28;20201;-29
2023/03/08 02:42:54;;;;;;;9.20;4.90;;;;;;;;;;5068348;28;20208;-30
2023/03/08 02:45:22;;;;;;;9.17;5.17;;;;;;;;;;5051682;28;20317;-26
2023/03/08 02:47:49;;;;;;;7.50;4.70;;;;;;;;;;5051361;28;20273;-28
2023/03/08 02:50:16;;;;;;;7.83;5.07;;;;;;;;;;5051936;28;20573;-30
2023/03/08 02:52:43;;;;;;;6.67;4.27;;;;;;;;;;5052253;28;20667;-28
2023/03/08 02:55:11;;;;;;;8.77;5.40;;;;;;;;;;5050846;28;20198;-31
2023/03/08 02:57:39;;;;;;;8.57;5.63;;;;;;;;;;5058411;28;20310;-28
2023/03/08 03:00:07;;;;;;;10.07;5.27;;;;;;;;;;5051299;28;20209;-30
2023/03/08 03:02:35;;;;;;;7.67;4.70;;;;;;;;;;5071565;28;20205;-33
2023/03/08 03:05:03;;;;;;;8.37;4.80;;;;;;;;;;5067391;28;20233;-31
2023/03/08 03:07:30;;;;;;;7.87;5.07;;;;;;;;;;5053901;28;20304;-30
2023/03/08 03:09:58;;;;;;;6.50;4.17;;;;;;;;;;5057032;28;20554;-31
2023/03/08 03:12:25;;;;;;;10.13;5.37;;;;;;;;;;5052649;28;20209;-31
2023/03/08 03:14:53;;;;;;;8.27;4.93;;;;;;;;;;5059852;28;20209;-31
2023/03/08 03:17:20;;;;;;;9.90;5.60;;;;;;;;;;5054971;28;20313;-30
2023/03/08 03:19:47;;;;;;;8.57;4.83;;;;;;;;;;5074070;28;20211;-27
2023/03/08 03:22:15;;;;;;;8.20;5.30;;;;;;;;;;5072707;28;20288;-31
2023/03/08 03:24:42;;;;;;;8.33;5.17;;;;;;;;;;5051818;28;20226;-32
2023/03/08 03:27:09;;;;;;;7.20;4.73;;;;;;;;;;5070099;28;20221;-30
2023/03/08 03:29:37;;;;;;;8.63;4.73;;;;;;;;;;5051541;28;20211;-28
2023/03/08 03:34:41;;;;;;;7.67;5.10;;;;;;;;;;5108203;28;20219;-33
2023/03/08 03:37:08;;;;;;;9.30;5.33;;;;;;;;;;5106671;28;20295;-31
2023/03/08 03:39:37;;;;;;;9.67;5.00;;;;;;;;;;5095945;28;20203;-34
2023/03/08 03:42:05;;;;;;;9.43;5.33;;;;;;;;;;5094214;28;20205;-33
2023/03/08 03:44:32;;;;;;;7.53;5.00;;;;;;;;;;5104189;28;20204;-33
2023/03/08 03:46:59;;;;;;;9.43;5.17;;;;;;;;;;5091235;27;20221;-32
2023/03/08 03:49:27;;;;;;;9.70;4.87;;;;;;;;;;5098048;28;20206;-30
2023/03/08 03:51:55;;;;;;;6.63;4.13;;;;;;;;;;5110824;28;20200;-28
2023/03/08 03:54:22;;;;;;;9.43;5.00;;;;;;;;;;5104393;28;20207;-32
2023/03/08 03:56:50;;;;;;;8.73;4.90;;;;;;;;;;5095513;28;20224;-29
2023/03/08 03:59:17;;;;;;;6.10;4.37;;;;;;;;;;5103692;28;20257;-34
2023/03/08 04:01:44;;;;;;;6.57;4.23;;;;;;;;;;5110464;28;20211;-32
2023/03/08 04:04:11;;;;;;;5.77;4.17;;;;;;;;;;5092746;28;20200;-35
2023/03/08 04:06:39;;;;;;;5.70;4.10;;;;;;;;;;5099615;28;20376;-31
2023/03/08 04:09:09;;;;;;;7.97;4.20;;;;;;;;;;5097802;28;20214;-33
2023/03/08 04:11:37;;;;;;;9.63;4.93;;;;;;;;;;5098455;28;20196;-33
2023/03/08 04:14:05;;;;;;;6.93;4.47;;;;;;;;;;5089800;28;20208;-32
2023/03/08 04:16:33;;;;;;;9.13;4.90;;;;;;;;;;5096864;28;20227;-30
2023/03/08 04:19:01;;;;;;;8.03;4.50;;;;;;;;;;5101693;28;20212;-35
2023/03/08 04:21:28;;;;;;;8.17;4.73;;;;;;;;;;5088857;28;20249;-33
2023/03/08 04:23:56;;;;;;;8.10;4.93;;;;;;;;;;5096886;28;20211;-36
2023/03/08 04:26:25;;;;;;;11.07;4.73;;;;;;;;;;5099112;28;20229;-34
2023/03/08 04:28:52;;;;;;;10.63;4.63;;;;;;;;;;5092738;28;20198;-31
2023/03/08 04:31:20;;;;;;;10.63;5.00;;;;;;;;;;5089486;28;20399;-32
2023/03/08 04:33:48;;;;;;;8.47;4.90;;;;;;;;;;5089529;28;20213;-35
2023/03/08 04:36:16;;;;;;;9.17;5.87;;;;;;;;;;5088748;28;20263;-31
2023/03/08 04:38:44;;;;;;;9.80;4.67;;;;;;;;;;5094380;28;20210;-30
2023/03/08 04:41:11;;;;;;;8.03;4.80;;;;;;;;;;5097880;28;20208;-32
2023/03/08 04:43:40;;;;;;;6.80;4.20;;;;;;;;;;5091819;28;20579;-28
2023/03/08 04:46:08;;;;;;;7.70;4.33;;;;;;;;;;5101014;28;20220;-30
2023/03/08 04:48:35;;;;;;;8.10;5.00;;;;;;;;;;5109860;28;20236;-29
2023/03/08 04:51:03;;;;;;;8.83;4.60;;;;;;;;;;5110096;28;20208;-33
2023/03/08 04:53:31;;;;;;;7.77;5.07;;;;;;;;;;5099417;28;20227;-28
2023/03/08 04:55:59;;;;;;;9.40;4.70;;;;;;;;;;5097918;28;20282;-29
2023/03/08 04:58:27;;;;;;;7.47;5.13;;;;;;;;;;5103578;28;20299;-26
2023/03/08 05:00:56;;;;;;;6.47;4.50;;;;;;;;;;5101898;28;20211;-27
2023/03/08 05:03:23;;;;;;;7.03;4.20;;;;;;;;;;5089836;28;20205;-36
2023/03/08 05:05:51;;;;;;;9.80;5.07;;;;;;;;;;5089117;28;20228;-30
2023/03/08 05:08:18;;;;;;;7.20;5.00;;;;;;;;;;5094265;28;20232;-28
2023/03/08 05:10:49;;;;;;;7.83;4.70;;;;;;;;;;5108779;28;20211;-31
2023/03/08 05:13:16;;;;;;;7.40;4.70;;;;;;;;;;5092770;28;20211;-29
2023/03/08 05:15:43;;;;;;;14.40;4.87;;;;;;;;;;5094946;28;20200;-32
2023/03/08 05:18:12;;;;;;;7.63;4.57;;;;;;;;;;5098357;28;20226;-32
2023/03/08 05:20:39;;;;;;;7.47;4.60;;;;;;;;;;5109377;28;20200;-31
2023/03/08 05:23:06;;;;;;;7.50;5.07;;;;;;;;;;5093571;28;20207;-33
2023/03/08 05:25:33;;;;;;;7.33;4.93;;;;;;;;;;5105209;28;20212;-32
2023/03/08 05:28:01;;;;;;;9.40;3.83;;;;;;;;;;5106179;28;20705;-29
2023/03/08 05:30:28;;;;;;;9.57;5.63;;;;;;;;;;5104883;28;20206;-31
2023/03/08 05:32:55;;;;;;;7.23;4.33;;;;;;;;;;5093576;28;20235;-29
2023/03/08 05:35:24;;;;;;;10.23;5.87;;;;;;;;;;5102232;28;20199;-30
2023/03/08 05:37:51;;;;;;;8.13;5.40;;;;;;;;;;5101272;28;20229;-33
2023/03/08 05:40:18;;;;;;;8.17;4.70;;;;;;;;;;5090731;28;20201;-27
2023/03/08 05:42:45;;;;;;;9.40;5.70;;;;;;;;;;5087329;28;20208;-29
2023/03/08 05:45:13;;;;;;;8.00;5.13;;;;;;;;;;5098434;28;20550;-32
2023/03/08 05:47:40;;;;;;;8.67;4.80;;;;;;;;;;5100819;28;20220;-29
2023/03/08 05:50:07;;;;;;;7.83;5.10;;;;;;;;;;5109814;28;20200;-29
2023/03/08 05:52:36;;;;;;;9.30;5.93;;;;;;;;;;5099621;28;20204;-27
2023/03/08 05:55:03;;;;;;;9.27;5.87;;;;;;;;;;5097131;28;20215;-29
2023/03/08 05:57:30;;;;;;;8.30;5.37;;;;;;;;;;5101204;28;20224;-32
2023/03/08 05:59:57;;;;;;;6.53;4.50;;;;;;;;;;5090212;28;20196;-31
2023/03/08 06:02:24;;;;;;;7.87;4.83;;;;;;;;;;5089689;28;20205;-31
2023/03/08 06:04:51;;;;;;;7.40;5.03;;;;;;;;;;5089738;28;20205;-31
2023/03/08 06:07:18;;;;;;;11.23;6.10;;;;;;;;;;5088433;28;20229;-32
2023/03/08 06:09:47;;;;;;;9.37;5.37;;;;;;;;;;5089474;28;20215;-30
2023/03/08 06:12:14;;;;;;;8.47;4.87;;;;;;;;;;5097824;28;20211;-31
2023/03/08 06:14:41;;;;;;;10.77;5.87;;;;;;;;;;5089639;28;20272;-33
2023/03/08 06:17:08;;;;;;;14.10;6.10;;;;;;;;;;5090351;28;20217;-29
2023/03/08 06:19:35;;;;;;;12.27;6.43;;;;;;;;;;5091709;28;20228;-30
2023/03/08 06:22:02;;;;;;;9.70;5.73;;;;;;;;;;5091711;28;20201;-29
2023/03/08 06:24:29;;;;;;;8.63;5.30;;;;;;;;;;5097905;28;20201;-31
2023/03/08 06:26:58;;;;;;;14.53;5.87;;;;;;;;;;5106381;28;20254;-29
2023/03/08 06:29:26;;;;;;;9.30;5.33;;;;;;;;;;5108032;28;20191;-31
2023/03/08 06:31:53;;;;;;;9.00;5.57;;;;;;;;;;5094895;28;20204;-31
2023/03/08 06:34:20;;;;;;;11.47;6.47;;;;;;;;;;5112285;28;20200;-33
2023/03/08 06:36:47;;;;;;;12.73;5.87;;;;;;;;;;5104316;28;20221;-27
2023/03/08 06:39:15;;;;;;;11.27;6.17;;;;;;;;;;5110879;28;20208;-32
2023/03/08 06:41:44;;;;;;;8.37;5.40;;;;;;;;;;5115010;28;20304;-30
2023/03/08 06:44:12;;;;;;;9.73;6.30;;;;;;;;;;5104719;28;20292;-28
2023/03/08 06:46:39;;;;;;;9.97;5.47;;;;;;;;;;5101103;28;20216;-28
2023/03/08 06:49:06;;;;;;;11.27;5.87;;;;;;;;;;5111277;28;20203;-27
2023/03/08 06:51:34;;;;;;;11.53;6.23;;;;;;;;;;5115272;28;20447;-33
2023/03/08 06:54:01;;;;;;;9.50;6.47;;;;;;;;;;5102925;28;20195;-33
2023/03/08 06:56:28;;;;;;;11.50;6.70;;;;;;;;;;5111279;28;20216;-29
2023/03/08 06:58:55;;;;;;;10.73;6.23;;;;;;;;;;5095702;28;20200;-32
2023/03/08 07:01:24;;;;;;;11.37;6.77;;;;;;;;;;5100078;28;20204;-28
2023/03/08 07:03:52;;;;;;;13.03;6.50;;;;;;;;;;5108706;28;20279;-29
2023/03/08 07:06:19;;;;;;;10.23;5.90;;;;;;;;;;5114972;28;20231;-29
2023/03/08 07:08:46;;;;;;;9.10;5.90;;;;;;;;;;5109739;28;20387;-28
2023/03/08 07:11:13;;;;;;;14.03;8.00;;;;;;;;;;5095692;27;20665;-30
2023/03/08 07:13:40;;;;;;;10.23;6.00;;;;;;;;;;5098354;28;20204;-26
2023/03/08 07:16:08;;;;;;;10.30;6.03;;;;;;;;;;5097397;28;20196;-28
2023/03/08 07:18:37;;;;;;;10.30;5.90;;;;;;;;;;5114284;28;20204;-30
2023/03/08 07:21:04;;;;;;;15.00;6.53;;;;;;;;;;5111857;28;20196;-29
2023/03/08 07:23:32;;;;;;;10.03;6.30;;;;;;;;;;5100545;28;20192;-27
2023/03/08 07:25:59;;;;;;;8.80;6.33;;;;;;;;;;5109918;28;20235;-28
2023/03/08 07:28:26;;;;;;;12.97;7.20;;;;;;;;;;5108809;28;20197;-30
2023/03/08 07:30:53;;;;;;;12.63;6.57;;;;;;;;;;5098404;28;20204;-31
2023/03/08 07:33:21;;;;;;;14.97;7.63;;;;;;;;;;5100533;28;20200;-27
2023/03/08 07:35:49;;;;;;;14.10;8.17;;;;;;;;;;5092690;28;20197;-31
2023/03/08 07:38:17;;;;;;;14.77;6.77;;;;;;;;;;5097021;28;20221;-33
2023/03/08 07:40:45;;;;;;;11.47;6.57;;;;;;;;;;5102228;28;20287;-28
2023/03/08 07:43:12;;;;;;;12.30;6.97;;;;;;;;;;5094691;28;20192;-28
2023/03/08 07:45:45;;;;;;;11.97;7.10;;;;;;;;;;5098301;28;20316;-27
2023/03/08 07:48:12;;;;;;;14.10;7.33;;;;;;;;;;5113901;28;20220;-30
2023/03/08 07:50:39;;;;;;;17.13;9.30;;;;;;;;;;5113883;28;20645;-29
2023/03/08 07:53:07;;;;;;;12.33;6.90;;;;;;;;;;5105422;28;20197;-32
2023/03/08 07:55:34;;;;;;;12.37;6.60;;;;;;;;;;5097949;28;20200;-31
2023/03/08 07:58:02;;;;;;;9.30;6.20;;;;;;;;;;5108763;28;20219;-30
2023/03/08 08:00:29;;;;;;;14.27;7.73;;;;;;;;;;5107957;28;20222;-28
2023/03/08 08:02:56;;;;;;;10.37;7.27;;;;;;;;;;5105802;28;20572;-30
2023/03/08 08:05:23;;;;;;;10.43;7.03;;;;;;;;;;5093454;28;20197;-27
2023/03/08 08:07:50;;;;;;;13.93;7.27;;;;;;;;;;5091302;28;20319;-28
2023/03/08 08:10:19;;;;;;;14.30;7.67;;;;;;;;;;5101423;28;20195;-26
2023/03/08 08:12:46;;;;;;;12.43;7.20;;;;;;;;;;5091570;28;20193;-27
2023/03/08 08:15:15;;;;;;;14.90;7.07;;;;;;;;;;5102512;28;20200;-30
2023/03/08 08:17:42;;;;;;;14.23;7.70;;;;;;;;;;5091887;28;20212;-32
2023/03/08 08:20:09;;;;;;;11.30;7.20;;;;;;;;;;5092185;28;20294;-31
2023/03/08 08:22:37;;;;;;;11.73;7.67;;;;;;;;;;5092445;28;20207;-27
2023/03/08 08:25:04;;;;;;;14.33;7.40;;;;;;;;;;5109888;28;20213;-29
2023/03/08 08:27:33;;;;;;;11.10;8.10;;;;;;;;;;5100754;27;20232;-29
2023/03/08 08:30:01;;;;;;;12.67;7.57;;;;;;;;;;5101063;28;20199;-30
2023/03/08 08:32:28;;;;;;;13.30;7.67;;;;;;;;;;5092959;28;20196;-30
2023/03/08 08:34:55;;;;;;;15.60;8.03;;;;;;;;;;5092937;28;20196;-29
2023/03/08 08:37:22;;;;;;;16.73;8.83;;;;;;;;;;5091446;28;20577;-28
2023/03/08 08:39:49;;;;;;;13.37;8.60;;;;;;;;;;5095797;28;20209;-27
2023/03/08 08:42:16;;;;;;;19.20;8.87;;;;;;;;;;5111459;28;20211;-32
2023/03/08 08:44:45;;;;;;;15.57;8.73;;;;;;;;;;5094210;28;20291;-31
2023/03/08 08:47:12;;;;;;;14.37;8.43;;;;;;;;;;5091987;28;20571;-29
2023/03/08 08:49:39;;;;;;;15.40;8.40;;;;;;;;;;5092751;28;20220;-28
2023/03/08 08:52:06;;;;;;;16.03;8.33;;;;;;;;;;5092388;28;20200;-30
2023/03/08 08:54:33;;;;;;;15.27;8.93;;;;;;;;;;5101330;28;20405;-28
2023/03/08 08:57:00;;;;;;;14.77;8.97;;;;;;;;;;5100567;28;20261;-29
2023/03/08 08:59:27;;;;;;;20.37;9.60;;;;;;;;;;5095928;28;20207;-26
2023/03/08 09:01:56;;;;;;;14.90;9.27;;;;;;;;;;5100169;28;20207;-26
2023/03/08 09:04:23;;;;;;;14.97;9.30;;;;;;;;;;5112696;28;20203;-27
2023/03/08 09:06:52;;;;;;;16.43;10.30;;;;;;;;;;5106907;28;20224;-31
2023/03/08 09:09:19;;;;;;;17.13;8.67;;;;;;;;;;5109439;28;20229;-31
2023/03/08 09:11:48;;;;;;;16.57;9.17;;;;;;;;;;5111013;28;20195;-28
2023/03/08 09:14:15;;;;;;;16.27;9.77;;;;;;;;;;5096900;28;20207;-31
2023/03/08 09:16:42;;;;;;;19.10;9.43;;;;;;;;;;5108784;28;20221;-30
2023/03/08 09:19:11;;;;;;;24.27;13.37;;;;;;;;;;5093907;28;20203;-30
2023/03/08 09:21:38;;;;;;;37.50;17.90;;;;;;;;;;5096651;28;20226;-30
2023/03/08 09:24:08;;;;;;;35.20;16.20;;;;;;;;;;5103044;28;20203;-26
2023/03/08 09:26:35;;;;;;;40.83;17.40;;;;;;;;;;5099459;28;20252;-28
2023/03/08 09:29:06;;;;;;;25.70;13.90;;;;;;;;;;5097805;28;20208;-31
2023/03/08 09:31:33;;;;;;;18.77;10.70;;;;;;;;;;5096004;28;20196;-29
2023/03/08 09:34:03;;;;;;;19.27;9.17;;;;;;;;;;5111941;28;20211;-30
2023/03/08 09:36:31;;;;;;;20.13;11.27;;;;;;;;;;5112226;28;20224;-29
2023/03/08 09:38:58;;;;;;;15.67;9.70;;;;;;;;;;5102865;28;20210;-31
2023/03/08 09:41:36;;;;;;;18.57;10.63;;;;;;;;;;5095009;28;20211;-29
2023/03/08 09:44:12;;;;;;;16.47;9.13;;;;;;;;;;5099475;28;20207;-32
2023/03/08 09:49:14;;;;;;;13.67;9.03;;;;;;;;;;5088222;28;20225;-34
2023/03/08 09:51:45;;;;;;;19.03;10.90;;;;;;;;;;5089843;28;20209;-37
2023/03/08 09:54:14;;;;;;;18.67;8.97;;;;;;;;;;5084179;28;20205;-32
2023/03/08 09:56:43;;;;;;;19.13;9.20;;;;;;;;;;5089645;28;20217;-32
2023/03/08 09:59:13;;;;;;;19.73;9.27;;;;;;;;;;5086757;28;20311;-31
2023/03/08 10:01:45;;;;;;;13.50;7.50;;;;;;;;;;5089868;28;20204;-32
2023/03/08 10:04:29;;;;;;;15.93;8.23;;;;;;;;;;5093090;28;20406;-33
2023/03/08 10:07:18;;;;;;;16.73;7.90;;;;;;;;;;5089924;28;20236;-30
2023/03/08 10:09:49;;;;;;;13.27;7.93;;;;;;;;;;5088172;28;20203;-31
2023/03/08 10:12:19;;;;;;;15.10;7.80;;;;;;;;;;5093535;28;20205;-32
2023/03/08 10:14:49;;;;;;;12.20;6.83;;;;;;;;;;5080415;28;20215;-37
2023/03/08 10:17:17;;;;;;;12.53;7.27;;;;;;;;;;5091284;28;20220;-32
2023/03/08 10:19:47;;;;;;;12.10;7.67;;;;;;;;;;5092769;28;20211;-31
2023/03/08 10:22:16;;;;;;;14.03;7.80;;;;;;;;;;5085548;28;20209;-34
2023/03/08 10:24:45;;;;;;;12.40;7.10;;;;;;;;;;5086817;28;20204;-35
2023/03/08 10:27:18;;;;;;;9.47;6.33;;;;;;;;;;5092631;28;20228;-27
2023/03/08 10:29:49;;;;;;;9.27;6.33;;;;;;;;;;5080477;28;20209;-28
2023/03/08 10:32:16;;;;;;;10.47;6.40;;;;;;;;;;5092165;28;20212;-29
2023/03/08 10:34:43;;;;;;;9.73;6.07;;;;;;;;;;5093139;28;20208;-32
2023/03/08 10:37:10;;;;;;;9.23;5.93;;;;;;;;;;5087748;28;20213;-32
2023/03/08 10:39:38;;;;;;;10.03;5.50;;;;;;;;;;5082644;28;20204;-36
2023/03/08 10:42:07;;;;;;;9.67;6.20;;;;;;;;;;5092484;28;20723;-32
2023/03/08 10:44:39;;;;;;;8.40;5.27;;;;;;;;;;5078216;28;20197;-34
2023/03/08 10:47:18;;;;;;;10.80;5.90;;;;;;;;;;5091850;28;20224;-37
2023/03/08 10:49:46;;;;;;;9.73;6.03;;;;;;;;;;5092378;28;20287;-36
2023/03/08 10:52:21;;;;;;;8.33;5.77;;;;;;;;;;5089725;28;20213;-28
2023/03/08 10:55:00;;;;;;;9.27;5.87;;;;;;;;;;5090988;28;20215;-33
2023/03/08 10:57:28;;;;;;;10.27;5.40;;;;;;;;;;5092313;28;20217;-32
2023/03/08 10:59:57;;;;;;;8.37;5.00;;;;;;;;;;5083428;28;20208;-34
2023/03/08 11:02:24;;;;;;;9.03;4.77;;;;;;;;;;5091593;28;20201;-32
2023/03/08 11:04:52;;;;;;;8.93;5.30;;;;;;;;;;5092101;28;20208;-30
2023/03/08 11:07:22;;;;;;;10.50;4.83;;;;;;;;;;5086355;28;20295;-31
2023/03/08 11:09:50;;;;;;;7.67;4.47;;;;;;;;;;5085857;28;20215;-29
2023/03/08 11:12:24;;;;;;;5.00;2.70;;;;;;;;;;5092204;28;20208;-34
2023/03/08 11:14:51;;;;;;;4.03;3.23;;;;;;;;;;5076626;28;20204;-30
2023/03/08 11:17:23;;;;;;;5.73;3.93;;;;;;;;;;5082166;28;20228;-31
2023/03/08 11:19:58;;;;;;;4.10;3.10;;;;;;;;;;5091991;28;20181;-29
2023/03/08 11:22:33;;;;;;;7.20;2.67;;;;;;;;;;5086277;28;20231;-32
2023/03/08 11:25:11;;;;;;;4.27;3.07;;;;;;;;;;5091871;28;20208;-30
2023/03/08 11:27:46;;;;;;;2.47;2.23;;;;;;;;;;5090301;28;20233;-35
2023/03/08 11:30:17;;;;;;;4.50;2.30;;;;;;;;;;5081179;28;20203;-35
2023/03/08 11:32:54;;;;;;;3.30;2.20;;;;;;;;;;5091460;28;20200;-30
2023/03/08 11:35:24;;;;;;;4.87;2.23;;;;;;;;;;5092147;28;20204;-33
2023/03/08 11:37:55;;;;;;;2.60;2.30;;;;;;;;;;5083822;28;20216;-37
2023/03/08 11:40:24;;;;;;;1.23;0.83;;;;;;;;;;5091097;28;20228;-33
2023/03/08 11:42:55;;;;;;;1.63;1.53;;;;;;;;;;5087709;28;20211;-31
2023/03/08 11:45:26;;;;;;;1.93;1.53;;;;;;;;;;5083387;28;20201;-31
2023/03/08 11:48:20;;;;;;;2.40;1.70;;;;;;;;;;5090751;28;20228;-35
2023/03/08 11:50:49;;;;;;;3.53;1.60;;;;;;;;;;5087857;28;20215;-33
2023/03/08 11:53:19;;;;;;;1.27;1.17;;;;;;;;;;5079020;28;20224;-30
2023/03/08 11:56:03;;;;;;;2.97;1.40;;;;;;;;;;5092974;28;20200;-36
2023/03/08 11:58:33;;;;;;;1.53;1.10;;;;;;;;;;5079466;28;20200;-31
2023/03/08 12:01:01;;;;;;;1.27;0.70;;;;;;;;;;5090013;28;20204;-36
2023/03/08 12:03:33;;;;;;;0.40;0.40;;;;;;;;;;5085767;28;20204;-28
2023/03/08 12:06:02;;;;;;;0.60;0.60;;;;;;;;;;5089246;28;20505;-32
2023/03/08 12:08:30;;;;;;;0.47;0.47;;;;;;;;;;5093543;28;20221;-30
2023/03/08 12:11:00;;;;;;;1.23;0.50;;;;;;;;;;5093904;28;20200;-36
2023/03/08 12:13:32;;;;;;;0.83;0.40;;;;;;;;;;5089288;28;20212;-34
2023/03/08 12:16:02;;;;;;;0.40;0.40;;;;;;;;;;5092817;28;20200;-30
2023/03/08 12:18:33;;;;;;;0.20;0.20;;;;;;;;;;5094097;28;20216;-34
2023/03/08 12:21:02;;;;;;;0.23;0.23;;;;;;;;;;5093786;28;20185;-36
2023/03/08 12:23:33;;;;;;;0.30;0.30;;;;;;;;;;5087937;28;20208;-30
2023/03/08 12:26:03;;;;;;;0.20;0.20;;;;;;;;;;5086473;28;20224;-34
2023/03/08 12:28:32;;;;;;;0.20;0.20;;;;;;;;;;5083130;28;20220;-32
2023/03/08 12:31:03;;;;;;;0.20;0.20;;;;;;;;;;5089347;28;20201;-30
2023/03/08 12:33:32;;;;;;;0.97;0.50;;;;;;;;;;5085516;28;20253;-34
2023/03/08 12:36:01;;;;;;;0.37;0.37;;;;;;;;;;5091729;28;20208;-36
2023/03/08 12:38:33;;;;;;;0.30;0.30;;;;;;;;;;5092070;28;20196;-32
2023/03/08 12:41:24;;;;;;;0.60;0.40;;;;;;;;;;5093552;28;20232;-35
2023/03/08 12:43:59;;;;;;;0.20;0.20;;;;;;;;;;5086337;28;20212;-28
2023/03/08 12:46:26;;;;;;;0.30;0.30;;;;;;;;;;5089681;28;20273;-29
2023/03/08 12:48:56;;;;;;;0.30;0.23;;;;;;;;;;5092750;28;20259;-27
2023/03/08 12:51:25;;;;;;;1.93;0.33;;;;;;;;;;5091236;28;20212;-35
2023/03/08 12:54:02;;;;;;;1.03;0.30;;;;;;;;;;5088002;28;20216;-33
2023/03/08 12:56:32;;;;;;;0.50;0.50;;;;;;;;;;5093078;28;20216;-31
2023/03/08 12:59:00;;;;;;;0.67;0.43;;;;;;;;;;5084339;28;20204;-29
2023/03/08 13:01:30;;;;;;;0.23;0.23;;;;;;;;;;5089697;28;20197;-33
2023/03/08 13:03:58;;;;;;;0.30;0.30;;;;;;;;;;5092355;28;20292;-32
2023/03/08 13:06:56;;;;;;;1.70;0.40;;;;;;;;;;5092787;28;20230;-32
2023/03/08 13:09:26;;;;;;;0.37;0.30;;;;;;;;;;5082505;28;20217;-33
2023/03/08 13:11:59;;;;;;;0.20;0.20;;;;;;;;;;5088082;28;20196;-33
2023/03/08 13:14:27;;;;;;;0.30;0.30;;;;;;;;;;5083920;28;20208;-30
2023/03/08 13:16:55;;;;;;;0.10;0.10;;;;;;;;;;5092265;28;20228;-33
2023/03/08 13:19:26;;;;;;;0.20;0.20;;;;;;;;;;5092019;28;20198;-35
2023/03/08 13:21:58;;;;;;;0.30;0.30;;;;;;;;;;5092606;28;20193;-31
2023/03/08 13:24:34;;;;;;;0.40;0.40;;;;;;;;;;5086158;28;20211;-32
2023/03/08 13:27:09;;;;;;;0.73;0.40;;;;;;;;;;5090155;28;20220;-34
2023/03/08 13:29:37;;;;;;;0.87;0.33;;;;;;;;;;5085281;28;20208;-31
2023/03/08 13:32:12;;;;;;;0.50;0.37;;;;;;;;;;5093123;28;20291;-30
2023/03/08 13:34:40;;;;;;;0.50;0.30;;;;;;;;;;5096797;28;20200;-39
2023/03/08 13:37:20;;;;;;;1.27;0.50;;;;;;;;;;5092929;28;20232;-33
2023/03/08 13:39:52;;;;;;;0.93;0.50;;;;;;;;;;5090923;28;20195;-34
2023/03/08 13:42:23;;;;;;;0.97;0.60;;;;;;;;;;5096479;28;20634;-32
2023/03/08 13:44:50;;;;;;;0.33;0.33;;;;;;;;;;5091923;28;20227;-29
2023/03/08 13:47:23;;;;;;;0.73;0.50;;;;;;;;;;5095115;28;20228;-28
2023/03/08 13:49:52;;;;;;;0.47;0.43;;;;;;;;;;5096666;28;20228;-37
2023/03/08 13:52:20;;;;;;;0.37;0.30;;;;;;;;;;5095560;28;20209;-27
2023/03/08 13:54:49;;;;;;;3.07;0.50;;;;;;;;;;5087476;28;20211;-36
2023/03/08 13:57:19;;;;;;;0.77;0.77;;;;;;;;;;5096590;28;20231;-35
2023/03/08 13:59:48;;;;;;;0.50;0.50;;;;;;;;;;5088492;28;20204;-34
2023/03/08 14:02:19;;;;;;;0.90;0.40;;;;;;;;;;5096258;28;20422;-30
2023/03/08 14:04:46;;;;;;;0.30;0.30;;;;;;;;;;5096206;28;20189;-34
2023/03/08 14:07:19;;;;;;;0.60;0.60;;;;;;;;;;5095591;28;20256;-32
2023/03/08 14:09:46;;;;;;;0.40;0.40;;;;;;;;;;5090299;28;20218;-32
2023/03/08 14:12:16;;;;;;;28.13;16.23;;;;;;;;;;5095757;28;20225;-35
2023/03/08 14:14:44;;;;;;;4.30;1.53;;;;;;;;;;5082574;28;20196;-30
2023/03/08 14:17:18;;;;;;;0.97;0.47;;;;;;;;;;5093954;28;20227;-39
2023/03/08 14:19:45;;;;;;;0.57;0.57;;;;;;;;;;5095891;28;20215;-28
2023/03/08 14:22:14;;;;;;;0.33;0.33;;;;;;;;;;5095757;28;20283;-32
2023/03/08 14:24:43;;;;;;;0.30;0.30;;;;;;;;;;5091687;28;20197;-35
2023/03/08 14:27:28;;;;;;;0.40;0.40;;;;;;;;;;5095352;28;20224;-27
2023/03/08 14:30:02;;;;;;;0.43;0.43;;;;;;;;;;5086206;28;20204;-33
2023/03/08 14:32:30;;;;;;;0.37;0.37;;;;;;;;;;5087137;28;20220;-39
2023/03/08 14:35:05;;;;;;;0.50;0.37;;;;;;;;;;5096109;28;20208;-27
2023/03/08 14:37:33;;;;;;;2.27;0.40;;;;;;;;;;5094662;28;20220;-36
2023/03/08 14:40:18;;;;;;;0.50;0.47;;;;;;;;;;5083252;28;20197;-31
2023/03/08 14:42:46;;;;;;;0.43;0.43;;;;;;;;;;5087490;28;20296;-36
2023/03/08 14:45:19;;;;;;;0.30;0.30;;;;;;;;;;5083341;28;20216;-33
2023/03/08 14:47:49;;;;;;;3.57;0.93;;;;;;;;;;5095327;28;20232;-31
2023/03/08 14:50:21;;;;;;;0.60;0.30;;;;;;;;;;5095575;28;20220;-38
2023/03/08 14:52:50;;;;;;;0.60;0.40;;;;;;;;;;5086250;28;20634;-29
2023/03/08 14:55:22;;;;;;;0.40;0.40;;;;;;;;;;5093385;28;20201;-29